createdAt,value
2019-04-14T00:01:53.026Z,7.83
2019-04-14T00:04:29.277Z,7.93
2019-04-14T00:07:03.695Z,7.37
2019-04-14T00:09:38.038Z,7.80
2019-04-14T00:12:11.956Z,8.20
2019-04-14T00:14:44.604Z,7.60
2019-04-14T00:17:15.787Z,7.87
2019-04-14T00:19:50.197Z,8.27
2019-04-14T00:22:22.747Z,8.30
2019-04-14T00:24:53.811Z,7.23
2019-04-14T00:27:25.890Z,8.30
2019-04-14T00:29:57.136Z,8.40
2019-04-14T00:32:29.260Z,8.03
2019-04-14T00:35:16.749Z,8.40
2019-04-14T00:38:06.322Z,7.87
2019-04-14T00:40:43.252Z,8.10
2019-04-14T00:43:33.495Z,8.27
2019-04-14T00:46:15.385Z,8.43
2019-04-14T00:48:47.659Z,8.53
2019-04-14T00:51:19.946Z,8.87
2019-04-14T00:53:51.364Z,8.70
2019-04-14T00:56:23.460Z,9.50
2019-04-14T00:58:56.106Z,9.27
2019-04-14T01:01:28.618Z,8.20
2019-04-14T01:03:59.742Z,9.90
2019-04-14T01:06:31.461Z,9.33
2019-04-14T01:09:04.276Z,9.13
2019-04-14T01:11:36.284Z,9.70
2019-04-14T01:14:08.012Z,9.10
2019-04-14T01:16:39.134Z,9.70
2019-04-14T01:19:11.216Z,9.20
2019-04-14T01:21:43.654Z,9.67
2019-04-14T01:24:16.488Z,9.70
2019-04-14T01:26:48.668Z,10.00
2019-04-14T01:29:20.854Z,9.93
2019-04-14T01:31:52.039Z,10.03
2019-04-14T01:34:23.870Z,10.53
2019-04-14T01:36:56.061Z,10.20
2019-04-14T01:39:28.537Z,10.30
2019-04-14T01:42:00.720Z,10.27
2019-04-14T01:44:33.017Z,9.97
2019-04-14T01:47:05.315Z,10.43
2019-04-14T01:49:37.552Z,11.00
2019-04-14T01:52:43.659Z,10.43
2019-04-14T01:55:22.282Z,10.07
2019-04-14T01:58:12.133Z,10.60
2019-04-14T02:00:51.168Z,10.57
2019-04-14T02:03:23.850Z,10.73
2019-04-14T02:05:55.999Z,10.63
2019-04-14T02:08:28.399Z,10.90
2019-04-14T02:11:00.792Z,11.43
2019-04-14T02:13:33.208Z,10.67
2019-04-14T02:16:15.115Z,10.40
2019-04-14T02:18:38.586Z,10.97
2019-04-14T02:21:10.719Z,10.67
2019-04-14T02:23:43.338Z,11.30
2019-04-14T02:26:15.506Z,11.87
2019-04-14T02:28:46.763Z,10.63
2019-04-14T02:31:38.843Z,11.60
2019-04-14T02:34:25.605Z,11.20
2019-04-14T02:39:29.418Z,11.33
2019-04-14T02:42:17.402Z,11.83
2019-04-14T02:44:32.472Z,12.20
2019-04-14T02:47:03.466Z,11.47
2019-04-14T02:49:36.331Z,12.23
2019-04-14T02:52:09.972Z,12.10
2019-04-14T02:54:51.912Z,11.57
2019-04-14T02:57:16.928Z,12.87
2019-04-14T02:59:51.529Z,12.43
2019-04-14T03:04:50.843Z,12.10
2019-04-14T03:10:10.545Z,12.33
2019-04-14T03:12:31.628Z,11.90
2019-04-14T03:15:07.237Z,12.50
2019-04-14T03:18:00.493Z,12.33
2019-04-14T03:20:42.886Z,13.33
2019-04-14T03:23:34.760Z,13.50
2019-04-14T03:26:05.082Z,13.00
2019-04-14T03:28:46.037Z,13.03
2019-04-14T03:31:51.938Z,13.57
2019-04-14T03:37:21.195Z,12.73
2019-04-14T03:39:09.690Z,13.27
2019-04-14T03:41:37.248Z,12.73
2019-04-14T03:44:11.895Z,13.00
2019-04-14T03:46:45.080Z,13.53
2019-04-14T03:49:17.782Z,13.47
2019-04-14T03:51:57.372Z,13.77
2019-04-14T03:54:10.967Z,14.07
2019-04-14T03:56:48.752Z,13.47
2019-04-14T03:59:22.017Z,14.20
2019-04-14T04:01:54.275Z,13.87
2019-04-14T04:04:25.557Z,13.37
2019-04-14T04:06:57.474Z,15.23
2019-04-14T04:09:34.245Z,15.13
2019-04-14T04:12:05.637Z,13.87
2019-04-14T04:14:37.789Z,13.97
2019-04-14T04:17:31.805Z,14.73
2019-04-14T04:20:20.354Z,14.43
2019-04-14T04:23:16.676Z,14.93
2019-04-14T04:26:19.167Z,15.70
2019-04-14T04:28:58.361Z,15.00
2019-04-14T04:31:50.440Z,14.60
2019-04-14T04:34:40.568Z,15.47
2019-04-14T04:37:34.418Z,15.93
2019-04-14T04:40:27.414Z,15.60
2019-04-14T04:42:59.075Z,15.60
2019-04-14T04:45:30.270Z,16.67
2019-04-14T04:48:02.422Z,15.47
2019-04-14T04:50:34.629Z,16.20
2019-04-14T04:53:06.928Z,16.60
2019-04-14T04:55:39.504Z,17.20
2019-04-14T04:58:12.080Z,17.27
2019-04-14T05:00:43.894Z,17.67
2019-04-14T05:03:16.833Z,17.73
2019-04-14T05:06:43.724Z,18.07
2019-04-14T05:09:25.318Z,17.80
2019-04-14T05:12:17.653Z,19.43
2019-04-14T05:14:54.478Z,17.73
2019-04-14T05:17:26.279Z,19.03
2019-04-14T05:19:58.302Z,17.03
2019-04-14T05:22:31.268Z,18.70
2019-04-14T05:25:03.524Z,18.70
2019-04-14T05:27:36.544Z,18.80
2019-04-14T05:30:08.990Z,19.43
2019-04-14T05:32:41.173Z,19.70
2019-04-14T05:35:12.479Z,19.77
2019-04-14T05:37:44.383Z,19.00
2019-04-14T05:40:16.671Z,19.10
2019-04-14T05:42:48.104Z,19.80
2019-04-14T05:45:19.864Z,20.43
2019-04-14T05:47:52.158Z,20.47
2019-04-14T05:50:23.363Z,20.17
2019-04-14T05:52:55.660Z,20.37
2019-04-14T05:55:28.342Z,21.77
2019-04-14T05:57:59.976Z,21.47
2019-04-14T06:00:31.990Z,20.23
2019-04-14T06:03:03.820Z,22.33
2019-04-14T06:05:36.153Z,20.17
2019-04-14T06:08:07.670Z,21.83
2019-04-14T06:10:38.808Z,22.83
2019-04-14T06:13:11.767Z,21.90
2019-04-14T06:15:42.970Z,23.70
2019-04-14T06:18:14.012Z,23.30
2019-04-14T06:20:45.140Z,24.50
2019-04-14T06:23:16.253Z,25.03
2019-04-14T06:25:47.714Z,22.70
2019-04-14T06:28:18.751Z,24.37
2019-04-14T06:31:18.392Z,23.77
2019-04-14T06:33:54.386Z,22.00
2019-04-14T06:36:47.526Z,24.93
2019-04-14T06:39:36.872Z,23.33
2019-04-14T06:42:07.983Z,24.53
2019-04-14T06:44:39.474Z,27.13
2019-04-14T06:47:11.008Z,26.23
2019-04-14T06:49:48.975Z,26.93
2019-04-14T06:52:14.803Z,26.33
2019-04-14T06:54:46.298Z,28.23
2019-04-14T06:57:17.333Z,28.57
2019-04-14T06:59:48.451Z,29.50
2019-04-14T07:02:19.915Z,29.67
2019-04-14T07:04:51.674Z,28.97
2019-04-14T07:07:22.721Z,29.33
2019-04-14T07:09:53.861Z,29.33
2019-04-14T07:12:25.585Z,29.13
2019-04-14T07:14:57.036Z,30.97
2019-04-14T07:17:28.409Z,30.57
2019-04-14T07:20:02.342Z,29.50
2019-04-14T07:22:34.579Z,30.47
2019-04-14T07:25:05.679Z,30.43
2019-04-14T07:27:37.081Z,29.77
2019-04-14T07:30:33.074Z,28.83
2019-04-14T07:33:21.823Z,29.23
2019-04-14T07:36:08.131Z,29.27
2019-04-14T07:38:51.999Z,30.13
2019-04-14T07:41:39.321Z,27.80
2019-04-14T07:44:35.444Z,29.33
2019-04-14T07:47:16.865Z,29.60
2019-04-14T07:50:15.614Z,30.07
2019-04-14T07:53:12.355Z,31.27
2019-04-14T07:56:00.700Z,29.87
2019-04-14T07:58:42.935Z,30.77
2019-04-14T08:01:17.023Z,31.10
2019-04-14T08:04:01.640Z,32.27
2019-04-14T08:06:44.946Z,33.10
2019-04-14T08:09:16.426Z,32.60
2019-04-14T08:11:47.938Z,31.90
2019-04-14T08:14:19.082Z,32.83
2019-04-14T08:16:50.142Z,34.67
2019-04-14T08:19:22.109Z,32.53
2019-04-14T08:21:53.160Z,32.37
2019-04-14T08:24:25.715Z,32.93
2019-04-14T08:26:56.784Z,32.27
2019-04-14T08:29:28.170Z,32.17
2019-04-14T08:31:59.181Z,32.50
2019-04-14T08:34:30.470Z,32.77
2019-04-14T08:37:01.551Z,32.60
2019-04-14T08:39:32.577Z,31.93
2019-04-14T08:42:19.190Z,31.80
2019-04-14T08:44:52.297Z,33.10
2019-04-14T08:47:41.364Z,32.80
2019-04-14T08:50:39.641Z,33.90
2019-04-14T08:53:26.082Z,33.23
2019-04-14T08:56:17.695Z,33.73
2019-04-14T08:58:57.886Z,33.23
2019-04-14T09:01:37.851Z,33.80
2019-04-14T09:04:17.809Z,34.17
2019-04-14T09:07:06.635Z,36.40
2019-04-14T09:09:43.277Z,34.77
2019-04-14T09:12:16.941Z,35.10
2019-04-14T09:14:56.828Z,36.10
2019-04-14T09:17:20.798Z,34.43
2019-04-14T09:19:51.854Z,37.97
2019-04-14T09:22:23.333Z,35.03
2019-04-14T09:24:54.497Z,36.87
2019-04-14T09:27:25.610Z,39.20
2019-04-14T09:29:56.693Z,37.30
2019-04-14T09:32:29.638Z,36.73
2019-04-14T09:35:00.700Z,36.77
2019-04-14T09:37:31.797Z,37.23
2019-04-14T09:40:04.399Z,35.53
2019-04-14T09:42:35.469Z,36.53
2019-04-14T09:45:07.396Z,39.07
2019-04-14T09:47:38.784Z,36.97
2019-04-14T09:50:09.734Z,38.10
2019-04-14T09:52:40.745Z,38.27
2019-04-14T09:55:12.170Z,37.97
2019-04-14T09:57:43.231Z,39.23
2019-04-14T10:00:15.833Z,38.73
2019-04-14T10:02:46.987Z,41.33
2019-04-14T10:05:18.069Z,37.10
2019-04-14T10:07:49.460Z,37.70
2019-04-14T10:10:20.522Z,37.77
2019-04-14T10:12:51.607Z,39.17
2019-04-14T10:15:22.708Z,36.47
2019-04-14T10:17:53.773Z,35.03
2019-04-14T10:20:24.915Z,36.30
2019-04-14T10:22:55.977Z,36.30
2019-04-14T10:25:27.132Z,36.87
2019-04-14T10:27:58.618Z,37.37
2019-04-14T10:30:29.592Z,36.63
2019-04-14T10:33:00.718Z,40.10
2019-04-14T10:35:32.212Z,38.43
2019-04-14T10:38:03.343Z,37.27
2019-04-14T10:40:34.874Z,37.30
2019-04-14T10:43:05.965Z,38.40
2019-04-14T10:45:37.046Z,37.53
2019-04-14T10:48:08.474Z,36.57
2019-04-14T10:50:39.836Z,37.13
2019-04-14T10:53:11.284Z,36.13
2019-04-14T10:55:42.387Z,36.90
2019-04-14T10:58:13.878Z,36.50
2019-04-14T11:00:45.150Z,35.97
2019-04-14T11:03:16.280Z,37.33
2019-04-14T11:05:59.434Z,35.73
2019-04-14T11:08:30.435Z,36.90
2019-04-14T11:11:01.494Z,36.03
2019-04-14T11:13:33.065Z,34.30
2019-04-14T11:16:04.921Z,34.40
2019-04-14T11:18:36.028Z,36.27
2019-04-14T11:21:08.204Z,35.50
2019-04-14T11:23:39.281Z,37.00
2019-04-14T11:26:10.622Z,36.60
2019-04-14T11:28:41.958Z,40.40
2019-04-14T11:31:14.812Z,38.80
2019-04-14T11:34:01.605Z,36.97
2019-04-14T11:36:54.686Z,38.97
2019-04-14T11:39:26.103Z,37.77
2019-04-14T11:41:57.230Z,36.07
2019-04-14T11:44:28.640Z,37.23
2019-04-14T11:46:59.949Z,35.00
2019-04-14T11:49:31.049Z,35.77
2019-04-14T11:52:02.121Z,36.47
2019-04-14T11:54:33.185Z,36.43
2019-04-14T11:57:04.329Z,34.60
2019-04-14T11:59:52.663Z,32.97
2019-04-14T12:02:45.714Z,35.43
2019-04-14T12:05:25.352Z,33.83
2019-04-14T12:08:11.058Z,33.90
2019-04-14T12:10:42.447Z,33.57
2019-04-14T12:13:13.562Z,34.30
2019-04-14T12:15:44.711Z,34.77
2019-04-14T12:18:15.850Z,32.97
2019-04-14T12:20:47.008Z,33.07
2019-04-14T12:23:18.541Z,33.37
2019-04-14T12:25:50.319Z,31.53
2019-04-14T12:28:21.927Z,31.83
2019-04-14T12:30:53.310Z,30.93
2019-04-14T12:33:24.663Z,30.53
2019-04-14T12:35:56.028Z,30.93
2019-04-14T12:38:27.153Z,28.90
2019-04-14T12:41:00.428Z,31.10
2019-04-14T12:43:38.413Z,29.83
2019-04-14T12:46:28.844Z,29.10
2019-04-14T12:49:05.057Z,30.10
2019-04-14T12:51:39.028Z,30.37
2019-04-14T12:54:10.176Z,29.87
2019-04-14T12:56:43.431Z,29.83
2019-04-14T12:59:19.209Z,29.90
2019-04-14T13:02:10.887Z,30.17
2019-04-14T13:04:42.256Z,30.80
2019-04-14T13:07:13.302Z,29.60
2019-04-14T13:09:45.062Z,29.87
2019-04-14T13:12:16.134Z,30.00
2019-04-14T13:14:47.252Z,29.67
2019-04-14T13:17:18.296Z,29.10
2019-04-14T13:19:49.686Z,29.17
2019-04-14T13:22:32.947Z,27.07
2019-04-14T13:24:54.254Z,26.73
2019-04-14T13:27:25.413Z,25.97
2019-04-14T13:29:56.523Z,25.80
2019-04-14T13:32:35.730Z,26.03
2019-04-14T13:35:00.281Z,26.17
2019-04-14T13:37:31.680Z,25.60
2019-04-14T13:40:02.680Z,25.90
2019-04-14T13:42:33.900Z,26.47
2019-04-14T13:45:05.424Z,26.60
2019-04-14T13:47:36.488Z,26.63
2019-04-14T13:50:08.162Z,26.00
2019-04-14T13:52:46.644Z,27.37
2019-04-14T13:55:13.612Z,26.00
2019-04-14T13:57:44.754Z,25.67
2019-04-14T14:00:17.937Z,22.40
2019-04-14T14:02:48.949Z,23.30
2019-04-14T14:05:20.689Z,24.47
2019-04-14T14:07:51.809Z,25.10
2019-04-14T14:10:22.865Z,24.33
2019-04-14T14:12:58.447Z,23.83
2019-04-14T14:15:48.547Z,24.13
2019-04-14T14:18:30.389Z,22.77
2019-04-14T14:21:23.435Z,19.93
2019-04-14T14:24:19.694Z,20.17
2019-04-14T14:26:51.529Z,20.47
2019-04-14T14:29:22.962Z,20.03
2019-04-14T14:31:54.665Z,19.67
2019-04-14T14:34:25.795Z,20.20
2019-04-14T14:36:56.771Z,19.60
2019-04-14T14:39:28.562Z,19.13
2019-04-14T14:41:59.674Z,19.20
2019-04-14T14:44:38.339Z,19.67
2019-04-14T14:47:18.018Z,18.97
2019-04-14T14:50:08.445Z,19.37
2019-04-14T14:52:40.933Z,19.07
2019-04-14T14:55:12.477Z,19.83
2019-04-14T14:57:43.631Z,20.60
2019-04-14T15:00:26.931Z,20.23
2019-04-14T15:02:57.999Z,18.57
2019-04-14T15:05:29.485Z,18.90
2019-04-14T15:08:00.902Z,18.30
2019-04-14T15:10:31.942Z,19.53
2019-04-14T15:13:03.360Z,20.00
2019-04-14T15:15:34.839Z,18.60
2019-04-14T15:18:06.437Z,19.37
2019-04-14T15:20:37.888Z,18.87
2019-04-14T15:23:09.026Z,17.87
2019-04-14T15:25:40.483Z,17.80
2019-04-14T15:28:11.543Z,18.33
2019-04-14T15:30:42.686Z,18.10
2019-04-14T15:33:13.804Z,18.83
2019-04-14T15:35:44.942Z,17.77
2019-04-14T15:38:16.437Z,18.20
2019-04-14T15:40:47.591Z,17.83
2019-04-14T15:43:18.978Z,17.83
2019-04-14T15:45:50.483Z,17.63
2019-04-14T15:48:21.545Z,17.53
2019-04-14T15:50:52.689Z,16.10
2019-04-14T15:53:23.760Z,17.50
2019-04-14T15:55:54.916Z,16.93
2019-04-14T15:58:47.896Z,16.90
2019-04-14T16:01:34.709Z,17.33
2019-04-14T16:04:11.938Z,15.93
2019-04-14T16:07:05.925Z,16.93
2019-04-14T16:10:02.093Z,17.77
2019-04-14T16:12:47.990Z,16.47
2019-04-14T16:15:57.357Z,16.47
2019-04-14T16:18:39.924Z,15.80
2019-04-14T16:21:11.051Z,16.57
2019-04-14T16:23:50.422Z,16.27
2019-04-14T16:26:34.535Z,16.13
2019-04-14T16:29:20.983Z,16.43
2019-04-14T16:32:07.181Z,15.13
2019-04-14T16:34:43.487Z,13.90
2019-04-14T16:37:14.665Z,14.67
2019-04-14T16:39:46.208Z,13.63
2019-04-14T16:42:17.699Z,13.60
2019-04-14T16:44:48.755Z,13.37
2019-04-14T16:47:20.286Z,13.67
2019-04-14T16:49:51.385Z,13.37
2019-04-14T16:52:47.253Z,13.70
2019-04-14T16:55:43.491Z,13.63
2019-04-14T16:58:26.583Z,13.53
2019-04-14T17:01:03.763Z,14.43
2019-04-14T17:03:35.204Z,14.03
2019-04-14T17:06:06.706Z,15.03
2019-04-14T17:08:37.782Z,13.23
2019-04-14T17:11:08.887Z,14.97
2019-04-14T17:13:42.684Z,14.10
2019-04-14T17:16:24.006Z,13.97
2019-04-14T17:19:17.208Z,14.50
2019-04-14T17:22:00.015Z,13.87
2019-04-14T17:25:01.121Z,13.70
2019-04-14T17:27:55.814Z,13.70
2019-04-14T17:30:31.481Z,13.23
2019-04-14T17:33:25.368Z,13.77
2019-04-14T17:36:05.642Z,13.40
2019-04-14T17:39:07.260Z,14.47
2019-04-14T17:42:05.236Z,13.80
2019-04-14T17:44:43.674Z,13.73
2019-04-14T17:47:34.627Z,13.20
2019-04-14T17:50:40.524Z,13.77
2019-04-14T17:53:19.956Z,13.57
2019-04-14T17:55:59.708Z,14.00
2019-04-14T17:58:39.062Z,14.00
2019-04-14T18:01:38.178Z,14.27
2019-04-14T18:04:26.107Z,13.97
2019-04-14T18:07:04.711Z,14.43
2019-04-14T18:09:48.433Z,14.07
2019-04-14T18:12:29.573Z,13.47
2019-04-14T18:15:11.719Z,14.33
2019-04-14T18:18:09.170Z,13.03
2019-04-14T18:20:43.174Z,14.03
2019-04-14T18:23:14.222Z,14.93
2019-04-14T18:25:46.012Z,15.17
2019-04-14T18:28:35.106Z,13.90
2019-04-14T18:31:35.535Z,14.53
2019-04-14T18:34:43.921Z,13.90
2019-04-14T18:37:32.986Z,13.67
2019-04-14T18:40:27.353Z,14.80
2019-04-14T18:43:03.389Z,14.63
2019-04-14T18:45:48.977Z,16.53
2019-04-14T18:48:39.459Z,15.53
2019-04-14T18:51:41.873Z,16.90
2019-04-14T18:54:23.430Z,14.90
2019-04-14T18:56:59.482Z,14.60
2019-04-14T18:59:50.903Z,13.30
2019-04-14T19:02:22.387Z,13.63
2019-04-14T19:04:53.494Z,14.07
2019-04-14T19:07:24.912Z,13.90
2019-04-14T19:09:56.335Z,14.57
2019-04-14T19:12:37.114Z,13.53
2019-04-14T19:15:27.893Z,13.60
2019-04-14T19:18:07.538Z,14.10
2019-04-14T19:20:40.899Z,14.17
2019-04-14T19:23:12.005Z,13.50
2019-04-14T19:25:43.528Z,13.80
2019-04-14T19:28:15.303Z,13.90
2019-04-14T19:30:46.651Z,14.87
2019-04-14T19:33:18.903Z,13.37
2019-04-14T19:35:49.971Z,13.50
2019-04-14T19:38:21.005Z,13.33
2019-04-14T19:40:51.983Z,13.30
2019-04-14T19:43:24.139Z,13.80
2019-04-14T19:45:56.621Z,13.90
2019-04-14T19:48:29.470Z,13.20
2019-04-14T19:51:00.508Z,13.57
2019-04-14T19:53:31.666Z,13.20
2019-04-14T19:56:03.115Z,13.33
2019-04-14T19:58:34.218Z,14.67
2019-04-14T20:01:07.168Z,13.20
2019-04-14T20:03:38.882Z,14.07
2019-04-14T20:06:10.044Z,14.03
2019-04-14T20:08:41.130Z,13.37
2019-04-14T20:11:12.578Z,14.97
2019-04-14T20:13:47.396Z,13.27
2019-04-14T20:16:43.466Z,14.13
2019-04-14T20:19:33.429Z,13.47
2019-04-14T20:22:14.136Z,14.40
2019-04-14T20:25:07.582Z,14.17
2019-04-14T20:27:46.952Z,14.47
2019-04-14T20:30:52.243Z,15.10
2019-04-14T20:33:23.763Z,14.00
2019-04-14T20:35:54.744Z,15.63
2019-04-14T20:38:26.280Z,14.07
2019-04-14T20:40:57.443Z,15.10
2019-04-14T20:43:28.432Z,14.50
2019-04-14T20:45:59.913Z,15.00
2019-04-14T20:48:31.004Z,15.87
2019-04-14T20:51:02.031Z,16.97
2019-04-14T20:53:33.001Z,14.73
2019-04-14T20:56:04.078Z,16.03
2019-04-14T20:58:35.170Z,15.70
2019-04-14T21:01:07.809Z,15.17
2019-04-14T21:03:57.077Z,14.23
2019-04-14T21:06:38.839Z,15.43
2019-04-14T21:09:41.701Z,15.30
2019-04-14T21:12:21.718Z,14.27
2019-04-14T21:15:09.363Z,15.57
2019-04-14T21:17:59.179Z,17.00
2019-04-14T21:20:51.959Z,16.20
2019-04-14T21:23:32.062Z,14.77
2019-04-14T21:26:17.361Z,16.20
2019-04-14T21:28:53.261Z,15.43
2019-04-14T21:31:33.808Z,16.77
2019-04-14T21:34:32.918Z,16.87
2019-04-14T21:37:29.343Z,17.73
2019-04-14T21:40:19.427Z,16.13
2019-04-14T21:42:50.916Z,16.03
2019-04-14T21:45:22.091Z,15.80
2019-04-14T21:47:53.582Z,16.90
2019-04-14T21:50:24.727Z,15.93
2019-04-14T21:52:55.829Z,15.47
2019-04-14T21:55:26.974Z,15.60
2019-04-14T21:58:13.607Z,14.97
2019-04-14T22:01:48.126Z,15.33
2019-04-14T22:04:53.623Z,15.53
2019-04-14T22:07:59.204Z,14.50
2019-04-14T22:10:37.949Z,16.33
2019-04-14T22:13:09.361Z,14.77
2019-04-14T22:15:41.224Z,14.80
2019-04-14T22:18:12.438Z,15.53
2019-04-14T22:20:43.536Z,15.83
2019-04-14T22:23:14.663Z,16.57
2019-04-14T22:25:45.730Z,16.53
2019-04-14T22:28:16.834Z,15.80
2019-04-14T22:30:48.232Z,16.57
2019-04-14T22:33:19.218Z,15.43
2019-04-14T22:35:50.392Z,16.40
2019-04-14T22:38:21.836Z,15.53
2019-04-14T22:40:52.886Z,15.90
2019-04-14T22:43:24.029Z,16.03
2019-04-14T22:45:55.138Z,16.27
2019-04-14T22:48:26.246Z,15.50
2019-04-14T22:50:57.547Z,16.03
2019-04-14T22:53:28.595Z,16.13
2019-04-14T22:56:00.035Z,17.63
2019-04-14T22:58:31.473Z,16.07
2019-04-14T23:01:21.283Z,16.27
2019-04-14T23:04:14.024Z,15.93
2019-04-14T23:07:09.859Z,17.37
2019-04-14T23:09:52.545Z,16.13
2019-04-14T23:12:31.929Z,17.43
2019-04-14T23:15:20.863Z,15.50
2019-04-14T23:18:09.811Z,14.77
2019-04-14T23:21:00.191Z,14.90
2019-04-14T23:23:41.100Z,14.43
2019-04-14T23:26:12.131Z,15.43
2019-04-14T23:28:43.556Z,15.63
2019-04-14T23:31:14.610Z,13.93
2019-04-14T23:33:46.043Z,13.50
2019-04-14T23:36:17.158Z,13.90
2019-04-14T23:38:48.303Z,15.20
2019-04-14T23:41:20.162Z,14.13
2019-04-14T23:43:51.305Z,14.87
2019-04-14T23:46:22.758Z,14.33
2019-04-14T23:48:54.243Z,14.03
2019-04-14T23:51:26.345Z,13.57
2019-04-14T23:53:57.850Z,14.63
2019-04-14T23:56:29.340Z,14.67
2019-04-14T23:59:00.860Z,13.93
